Latest Coastal Weather Observations for Kingfish B

IDV60701

Issued at 8:51 pm EST Monday 30 May 2016 (issued every 10 minutes, with the page automatically refreshed every 10 minutes)

About coastal observations | Map of coastal stations | Coastal observations for VIC | Marine services | Other Formats
Station Details ID: 400139 Name: KINGFISH B (PLATFORM) Lat: -38.60 Lon: 148.19 Height: 31.4 m
Data from the previous 72 hours. | See also: Recent months for locations in Victoria
Date/Time
EST
Temp

°C
Wind Pressure Rain
since 9am
mm
Weather Cloud Vis
km
Sea
Height
m
Swell
Dir
 
Speed
knots
Gust
knots
hPa Trend Height
m
Period
s
Dir
30/07:40pm 14.9 E 9 13 1028.2 - - - - - - - - -
30/07:30pm 14.8 E 10 13 1028.3 - - - - - - - - -
30/07:20pm 14.8 E 10 16 1028.2 - - - - - - - - -
30/07:10pm 14.7 E 11 14 1028.0 - - - - - - - - -
30/07:00pm 14.7 E 11 15 1028.0 - - - - - - - - -
30/06:50pm 14.6 E 10 13 1028.0 - - - - - - - - -
30/06:40pm 14.2 ESE 7 11 1028.0 - - - - - - - - -
30/06:30pm 13.8 ESE 10 14 1027.9 - - - - - - - - -
30/06:20pm 14.0 ESE 10 14 1027.9 - - - - - - - - -
30/06:10pm 14.0 E 10 14 1027.9 - - - - - - - - -
30/06:00pm 14.0 E 12 16 1027.7 - - - - - - - - -
30/05:50pm 14.0 ENE 14 17 1027.6 - - - - - - - - -
30/05:40pm 14.3 E 13 17 1027.5 - - - - - - - - -
30/05:30pm 14.4 ESE 10 13 1027.5 - - - - - - - - -
30/05:20pm 14.3 ESE 11 13 1027.4 - - - - - - - - -
30/05:10pm 14.2 ESE 11 13 1027.3 - - - - - - - - -
30/05:00pm 14.2 ESE 11 13 1027.1 - - - - - - - - -
30/04:50pm 14.0 ESE 11 13 1027.0 - - - - - - - - -
30/04:40pm 13.9 ESE 11 13 1027.0 - - - - - - - - -
30/04:30pm 14.0 ESE 9 12 1026.9 - - - - - - - - -
30/04:20pm 14.0 ESE 9 12 1026.9 - - - - - - - - -
30/04:10pm 13.9 ESE 5 11 1026.8 - - - - - - - - -
30/04:00pm 13.5 CALM 0 1 1026.7 - - - - - - - - -
30/03:50pm 13.6 CALM 0 1 1026.6 - - - - - - - - -
30/03:40pm 13.5 CALM 0 1 1026.5 - - - - - - - - -
30/03:30pm 13.4 NNE 1 3 1026.5 - - - - - - - - -
30/03:20pm 13.3 NNE 2 4 1026.4 - - - - - - - - -
30/03:10pm 13.2 ENE 5 9 1026.3 - - - - - - - - -
30/03:00pm 13.3 ENE 8 11 1026.2 - - - - - - - - -
30/02:50pm 13.2 E 9 11 1026.1 - - - - - - - - -
30/02:40pm 13.1 E 8 11 1026.1 - - - - - - - - -
30/02:30pm 13.1 E 7 9 1026.1 - - - - - - - - -
30/02:20pm 13.0 ESE 6 9 1026.1 - - - - - - - - -
30/02:10pm 12.8 ESE 7 10 1026.1 - - - - - - - - -
30/02:00pm 13.3 ESE 8 11 1026.0 - - - - - - - - -
30/01:50pm 13.7 E 7 11 1025.8 - - - - - - - - -
30/01:40pm 13.7 E 8 10 1025.6 - - - - - - - - -
30/01:30pm 13.4 E 9 11 1025.6 - - - - - - - - -
30/01:20pm 13.3 E 10 11 1025.6 - - - - - - - - -
30/01:10pm 13.6 ESE 11 15 1025.4 - - - - - - - - -
30/01:00pm 13.9 SE 11 22 1025.5 - - - - - - - - -
30/12:50pm 14.9 SSE 4 14 1025.5 - - - - - - - - -
30/12:40pm 15.1 SW 1 2 1025.4 - - - - - - - - -
30/12:30pm 15.1 WSW 1 2 1025.4 - - - - - - - - -
30/12:20pm 14.9 WSW 2 4 1025.4 - - - - - - - - -
30/12:10pm 15.0 WSW 3 5 1025.5 - - - - - - - - -
30/12:00pm 15.0 WSW 3 6 1025.5 - - - - - - - - -
30/11:50am 14.7 WSW 4 6 1025.5 - - - - - - - - -
30/11:40am 14.3 SSW 1 4 1025.8 - - - - - - - - -
30/11:30am 14.4 CALM 0 2 1025.8 - - - - - - - - -
30/11:20am 14.4 CALM 0 2 1025.8 - - - - - - - - -
30/11:10am 14.2 CALM 0 0 1025.9 - - - - - - - - -
30/10:50am 13.9 CALM 0 2 1026.0 - - - - - - - - -
30/10:40am 13.7 CALM 0 0 1026.0 - - - - - - - - -
30/10:30am 13.5 S 1 3 1026.1 - - - - - - - - -
30/10:20am 13.7 E 3 7 1026.1 - - - - - - - - -
30/10:10am 13.7 SSE 4 6 1026.2 - - - - - - - - -
30/10:00am 13.9 SE 6 10 1026.2 - - - - - - - - -
30/09:50am 14.0 SSE 3 5 1026.1 - - - - - - - - -
30/09:40am 13.9 SSE 4 6 1026.2 - - - - - - - - -
30/09:30am 13.9 SSE 5 9 1026.3 - - - - - - - - -
30/09:20am 13.7 SSE 7 9 1026.1 - - - - - - - - -
30/09:10am 13.2 SSE 7 9 1026.2 - - - - - - - - -
30/09:00am 13.2 SSE 11 13 1026.2 - - - - - - - - -
30/08:50am 13.5 SSE 13 15 1026.1 - - - - - - - - -
30/08:40am 14.0 S 5 13 1025.8 - - - - - - - - -
30/08:30am 13.7 SSW 3 5 1025.7 - - - - - - - - -
30/08:20am 13.3 S 8 11 1025.8 - - - - - - - - -
30/08:10am 13.9 S 11 13 1025.7 - - - - - - - - -
30/08:00am 14.1 S 7 9 1025.5 - - - - - - - - -
30/07:50am 14.1 S 7 9 1025.4 - - - - - - - - -
30/07:40am 14.0 S 7 10 1025.3 - - - - - - - - -
30/07:30am 13.9 S 7 9 1024.9 - - - - - - - - -
30/07:20am 13.8 S 5 7 1024.3 - - - - - - - - -
30/07:10am 14.0 SW 5 7 1024.0 - - - - - - - - -
30/07:00am 13.9 SW 6 8 1023.7 - - - - - - - - -
30/06:50am 13.9 SW 7 9 1023.5 - - - - - - - - -
30/06:40am 13.7 SW 7 10 1023.5 - - - - - - - - -
30/06:30am 13.6 SW 8 9 1023.1 - - - - - - - - -
30/06:20am 13.6 SW 8 9 1023.0 - - - - - - - - -
30/06:10am 13.6 SW 8 9 1022.9 - - - - - - - - -
30/06:00am 13.6 SW 8 10 1022.6 - - - - - - - - -
30/05:50am 13.7 SW 8 10 1022.5 - - - - - - - - -
30/05:40am 13.9 SW 9 11 1022.4 - - - - - - - - -
30/05:30am 13.9 SW 9 11 1022.4 - - - - - - - - -
30/05:20am 14.0 SW 9 11 1022.3 - - - - - - - - -
30/05:10am 14.1 SW 10 14 1022.1 - - - - - - - - -
30/05:00am 14.1 SW 9 11 1022.2 - - - - - - - - -
30/04:50am 14.2 SW 9 11 1022.3 - - - - - - - - -
30/04:40am 14.2 SW 9 11 1022.0 - - - - - - - - -
30/04:30am 14.2 SW 9 12 1022.0 - - - - - - - - -
30/04:20am 14.2 SW 9 12 1021.8 - - - - - - - - -
30/04:10am 14.2 SW 9 12 1021.7 - - - - - - - - -
30/04:00am 14.2 SW 9 11 1021.5 - - - - - - - - -
30/03:50am 14.2 SW 9 11 1021.8 - - - - - - - - -
30/03:40am 14.0 SW 7 10 1021.5 - - - - - - - - -
30/03:30am 13.9 SW 7 9 1021.2 - - - - - - - - -
30/03:20am 13.8 SW 7 9 1021.0 - - - - - - - - -
30/03:10am 13.7 SW 8 10 1020.9 - - - - - - - - -
30/03:00am 13.8 SW 8 10 1020.8 - - - - - - - - -
30/02:50am 13.7 SW 8 9 1020.5 - - - - - - - - -
30/02:40am 13.7 SW 8 10 1020.1 - - - - - - - - -
30/02:30am 13.5 SW 8 10 1020.3 - - - - - - - - -
30/02:20am 13.6 SW 8 9 1020.0 - - - - - - - - -
30/02:10am 13.6 SW 8 11 1020.5 - - - - - - - - -
30/02:00am 13.6 SW 9 10 1020.1 - - - - - - - - -
30/01:50am 13.4 SW 9 11 1019.9 - - - - - - - - -
30/01:40am 13.3 SW 11 13 1019.6 - - - - - - - - -
30/01:30am 13.3 SW 11 13 1019.4 - - - - - - - - -
30/01:20am 13.4 SW 11 14 1019.8 - - - - - - - - -
30/01:10am 13.3 SW 11 14 1019.8 - - - - - - - - -
30/01:00am 13.3 SW 12 15 1019.5 - - - - - - - - -
30/12:50am 13.3 SW 12 15 1019.6 - - - - - - - - -
30/12:40am 13.2 SW 13 14 1019.3 - - - - - - - - -
30/12:30am 13.3 SW 12 15 1019.5 - - - - - - - - -
30/12:20am 13.3 SW 12 15 1019.4 - - - - - - - - -
30/12:10am 13.5 SW 12 14 1019.5 - - - - - - - - -
30/12:00am 13.3 SW 12 14 1019.6 - - - - - - - - -
 
Date/Time
EST
Temp

°C
Wind Pressure Rain
since 9am
mm
Weather Cloud Vis
km
Sea
Height
m
Swell
Dir
 
Speed
knots
Gust
knots
hPa Trend Height
m
Period
s
Dir
29/11:50pm 13.3 SW 11 13 1019.4 - - - - - - - - -
29/11:40pm 13.3 WSW 12 14 1019.4 - - - - - - - - -
29/11:30pm 13.4 WSW 12 14 1019.5 - - - - - - - - -
29/11:20pm 13.3 SW 12 15 1019.5 - - - - - - - - -
29/11:10pm 13.4 SW 13 15 1019.5 - - - - - - - - -
29/11:00pm 13.3 WSW 13 15 1019.3 - - - - - - - - -
29/10:50pm 13.2 WSW 13 14 1019.4 - - - - - - - - -
29/10:40pm 13.2 SW 13 16 1019.3 - - - - - - - - -
29/10:30pm 13.2 SW 13 15 1019.2 - - - - - - - - -
29/10:20pm 13.2 WSW 13 15 1019.3 - - - - - - - - -
29/10:10pm 13.1 SW 14 17 1019.2 - - - - - - - - -
29/10:00pm 13.3 WSW 15 17 1018.8 - - - - - - - - -
29/09:50pm 14.4 SW 16 19 1018.6 - - - - - - - - -
29/09:40pm 14.9 SW 16 19 1018.6 - - - - - - - - -
29/09:30pm 13.5 SW 15 19 1019.3 - - - - - - - - -
29/09:20pm 13.5 SW 11 14 1018.9 - - - - - - - - -
29/09:10pm 13.8 SW 11 13 1018.6 - - - - - - - - -
29/09:00pm 13.2 SW 16 19 1018.2 - - - - - - - - -
29/08:50pm 13.5 SW 17 20 1018.8 - - - - - - - - -
29/08:40pm 13.4 SW 14 18 1018.7 - - - - - - - - -
29/08:30pm 13.4 SW 14 18 1018.8 - - - - - - - - -
29/08:20pm 13.6 SW 14 17 1018.6 - - - - - - - - -
29/08:10pm 14.0 SW 19 24 1018.9 - - - - - - - - -
29/08:00pm 14.1 SW 18 21 1018.5 - - - - - - - - -
29/07:40pm 14.1 SW 20 23 1018.4 - - - - - - - - -
29/07:30pm 14.3 SW 18 21 1018.4 - - - - - - - - -
29/07:20pm 14.2 SW 19 23 1018.1 - - - - - - - - -
29/07:10pm 14.3 SW 20 25 1017.8 - - - - - - - - -
29/07:00pm 14.2 SW 21 25 1017.9 - - - - - - - - -
29/06:50pm 14.0 SW 21 23 1017.4 - - - - - - - - -
29/06:40pm 13.9 SW 18 22 1017.4 - - - - - - - - -
29/06:30pm 13.8 WSW 20 25 1016.8 - - - - - - - - -
29/06:20pm 13.9 WSW 20 24 1016.4 - - - - - - - - -
29/06:10pm 13.9 SW 22 25 1016.3 - - - - - - - - -
29/06:00pm 13.9 SW 22 25 1015.9 - - - - - - - - -
29/05:50pm 14.0 SW 22 26 1016.4 - - - - - - - - -
29/05:40pm 14.2 SW 23 27 1016.1 - - - - - - - - -
29/05:30pm 14.1 SW 23 27 1016.0 - - - - - - - - -
29/05:20pm 14.2 SW 22 26 1015.7 - - - - - - - - -
29/05:10pm 14.0 SW 24 27 1015.5 - - - - - - - - -
29/05:00pm 14.1 SW 22 27 1015.9 - - - - - - - - -
29/04:50pm 14.3 SW 23 27 1015.7 - - - - - - - - -
29/04:40pm 14.4 SW 22 27 1016.0 - - - - - - - - -
29/04:30pm 14.2 SW 24 28 1015.6 - - - - - - - - -
29/04:20pm 14.3 SW 24 28 1015.4 - - - - - - - - -
29/04:10pm 14.3 SW 25 28 1015.2 - - - - - - - - -
29/04:00pm 14.3 SW 25 29 1015.2 - - - - - - - - -
29/03:50pm 14.4 SW 25 30 1015.0 - - - - - - - - -
29/03:40pm 14.4 SW 24 28 1015.0 - - - - - - - - -
29/03:30pm 14.6 SW 25 29 1015.1 - - - - - - - - -
29/03:20pm 14.6 SW 25 29 1014.7 - - - - - - - - -
29/03:10pm 14.7 SW 25 29 1014.9 - - - - - - - - -
29/03:00pm 14.8 SW 26 30 1014.9 - - - - - - - - -
29/02:50pm 14.8 SW 27 30 1014.5 - - - - - - - - -
29/02:40pm 14.9 SW 26 30 1014.3 - - - - - - - - -
29/02:30pm 14.8 SW 26 30 1014.3 - - - - - - - - -
29/02:20pm 14.9 SW 25 30 1014.3 - - - - - - - - -
29/02:10pm 14.9 SW 25 30 1014.1 - - - - - - - - -
29/02:00pm 15.0 SW 26 31 1014.1 - - - - - - - - -
29/01:50pm 14.9 SW 27 31 1014.1 - - - - - - - - -
29/01:40pm 14.9 SW 26 31 1013.7 - - - - - - - - -
29/01:30pm 14.9 SW 25 31 1013.7 - - - - - - - - -
29/01:20pm 14.9 SW 24 29 1013.8 - - - - - - - - -
29/01:10pm 15.1 SW 24 30 1013.6 - - - - - - - - -
29/01:00pm 15.0 SW 24 29 1013.8 - - - - - - - - -
29/12:50pm 15.0 SW 24 29 1013.9 - - - - - - - - -
29/12:40pm 14.7 SW 23 28 1013.9 - - - - - - - - -
29/12:30pm 14.4 SW 26 31 1014.5 - - - - - - - - -
29/12:20pm 15.2 SW 24 31 1013.4 - - - - - - - - -
29/12:10pm 15.0 SW 23 26 1013.4 - - - - - - - - -
29/12:00pm 15.1 SW 21 25 1013.5 - - - - - - - - -
29/11:50am 14.9 SW 23 26 1013.1 - - - - - - - - -
29/11:40am 15.0 SW 22 26 1013.2 - - - - - - - - -
29/11:30am 15.3 SW 22 26 1013.6 - - - - - - - - -
29/11:20am 15.2 SW 21 25 1013.3 - - - - - - - - -
29/11:10am 15.2 SW 22 26 1013.5 - - - - - - - - -
29/11:00am 15.1 SW 23 27 1013.6 - - - - - - - - -
29/10:50am 15.0 SW 23 26 1013.4 - - - - - - - - -
29/10:40am 15.3 SW 24 28 1013.5 - - - - - - - - -
29/10:30am 15.4 SW 23 26 1013.8 - - - - - - - - -
29/10:20am 15.1 SW 22 27 1013.7 - - - - - - - - -
29/10:10am 15.3 SW 23 29 1013.6 - - - - - - - - -
29/10:00am 15.3 SW 22 27 1013.8 - - - - - - - - -
29/09:50am 15.2 SW 22 26 1013.7 - - - - - - - - -
29/09:40am 15.0 SW 21 24 1013.7 - - - - - - - - -
29/09:30am 15.1 SW 20 28 1014.0 - - - - - - - - -
29/09:20am 15.5 SW 24 29 1013.7 - - - - - - - - -
29/09:10am 15.3 SW 22 25 1013.4 - - - - - - - - -
29/09:00am 15.1 SW 22 25 1013.6 - - - - - - - - -
29/08:50am 15.0 SW 23 26 1013.5 - - - - - - - - -
29/08:40am 14.9 SW 23 27 1013.1 - - - - - - - - -
29/08:30am 14.9 SW 23 27 1013.2 - - - - - - - - -
29/08:20am 14.3 SW 23 26 1012.8 - - - - - - - - -
29/08:10am 14.4 SW 25 29 1012.8 - - - - - - - - -
29/08:00am 14.5 SW 23 28 1012.9 - - - - - - - - -
29/07:50am 14.7 SW 23 26 1012.9 - - - - - - - - -
29/07:40am 14.5 SW 24 27 1012.7 - - - - - - - - -
29/07:30am 14.5 SW 24 27 1012.7 - - - - - - - - -
29/07:20am 14.0 SW 24 29 1012.3 - - - - - - - - -
29/07:10am 13.7 SW 24 29 1012.2 - - - - - - - - -
29/07:00am 13.6 SW 23 29 1012.8 - - - - - - - - -
29/06:50am 13.9 SW 23 28 1012.4 - - - - - - - - -
29/06:40am 13.8 SW 22 28 1012.3 - - - - - - - - -
29/06:30am 13.6 SW 25 29 1011.8 - - - - - - - - -
29/06:20am 13.4 SW 23 27 1012.3 - - - - - - - - -
29/06:10am 13.1 SW 25 30 1012.8 - - - - - - - - -
29/06:00am 13.2 SSW 27 32 1012.6 - - - - - - - - -
29/05:50am 12.9 SW 23 34 1011.9 - - - - - - - - -
29/05:40am 13.0 SW 27 35 1011.8 - - - - - - - - -
29/05:30am 13.5 SW 26 31 1012.0 - - - - - - - - -
29/05:20am 13.8 SW 26 31 1011.9 - - - - - - - - -
29/05:10am 13.9 SW 25 30 1012.0 - - - - - - - - -
29/05:00am 14.0 SW 26 33 1011.3 - - - - - - - - -
29/04:50am 13.9 SW 27 32 1010.1 - - - - - - - - -
29/04:40am 13.9 SW 26 31 1010.7 - - - - - - - - -
29/04:30am 13.9 SW 26 30 1010.5 - - - - - - - - -
29/04:20am 13.8 SW 27 32 1010.5 - - - - - - - - -
29/04:10am 13.7 SW 25 30 1010.5 - - - - - - - - -
29/03:50am 13.6 SW 25 29 1010.1 - - - - - - - - -
29/03:40am 13.6 WSW 24 29 1010.1 - - - - - - - - -
29/03:30am 13.5 WSW 23 30 1010.1 - - - - - - - - -
29/03:20am 13.0 SW 25 35 1009.9 - - - - - - - - -
29/03:00am 13.3 WSW 23 28 1010.0 - - - - - - - - -
29/02:50am 13.3 WSW 21 28 1010.0 - - - - - - - - -
29/02:40am 13.5 WSW 23 30 1010.0 - - - - - - - - -
29/02:30am 13.5 WSW 21 27 1010.1 - - - - - - - - -
29/02:20am 13.4 W 22 27 1010.0 - - - - - - - - -
29/02:10am 13.4 WSW 23 27 1009.6 - - - - - - - - -
29/02:00am 13.2 WSW 22 28 1009.7 - - - - - - - - -
29/01:50am 13.1 WSW 24 31 1009.6 - - - - - - - - -
29/01:40am 13.1 WSW 23 31 1009.5 - - - - - - - - -
29/01:30am 13.1 WSW 25 30 1009.5 - - - - - - - - -
29/01:20am 13.0 WSW 20 30 1009.9 - - - - - - - - -
29/01:10am 13.3 WSW 17 27 1010.1 - - - - - - - - -
29/01:00am 13.5 WSW 20 26 1009.8 - - - - - - - - -
29/12:50am 13.6 WSW 21 26 1009.5 - - - - - - - - -
29/12:40am 13.5 WSW 24 27 1009.0 - - - - - - - - -
29/12:30am 13.6 WSW 20 25 1009.6 - - - - - - - - -
29/12:20am 13.5 WSW 19 22 1009.8 - - - - - - - - -
29/12:10am 13.5 WSW 23 28 1009.3 - - - - - - - - -
29/12:00am 13.4 WSW 23 27 1009.3 - - - - - - - - -
 
Date/Time
EST
Temp

°C
Wind Pressure Rain
since 9am
mm
Weather Cloud Vis
km
Sea
Height
m
Swell
Dir
 
Speed
knots
Gust
knots
hPa Trend Height
m
Period
s
Dir
28/11:50pm 13.4 WSW 23 28 1009.5 - - - - - - - - -
28/11:40pm 13.4 WSW 23 26 1009.6 - - - - - - - - -
28/11:30pm 13.4 WSW 22 27 1009.5 - - - - - - - - -
28/11:20pm 13.3 WSW 24 28 1009.2 - - - - - - - - -
28/11:10pm 13.2 WSW 22 27 1009.2 - - - - - - - - -
28/11:00pm 13.5 WSW 23 29 1009.1 - - - - - - - - -
28/10:50pm 13.6 WSW 21 26 1009.2 - - - - - - - - -
28/10:40pm 13.4 WSW 20 27 1009.6 - - - - - - - - -
28/10:30pm 13.6 SW 24 34 1009.9 - - - - - - - - -
28/10:20pm 13.7 WSW 21 26 1009.5 - - - - - - - - -
28/10:10pm 13.5 SW 20 27 1010.0 - - - - - - - - -
28/10:00pm 13.9 SW 19 31 1009.7 - - - - - - - - -
28/09:50pm 14.9 SW 20 32 1009.7 - - - - - - - - -
28/09:40pm 14.6 SW 21 33 1009.2 - - - - - - - - -
28/09:30pm 13.9 SW 21 27 1009.3 - - - - - - - - -
28/09:20pm 14.5 SW 23 29 1008.8 - - - - - - - - -
28/09:10pm 15.1 SW 22 26 1008.9 - - - - - - - - -
28/09:00pm 14.4 SW 23 27 1008.9 - - - - - - - - -
28/08:50pm 13.8 SW 23 26 1009.1 - - - - - - - - -
28/08:40pm 13.7 SW 22 27 1009.0 - - - - - - - - -
28/08:30pm 13.7 SW 22 26 1009.1 - - - - - - - - -
28/08:20pm 13.6 SW 19 23 1009.3 - - - - - - - - -
28/08:10pm 13.6 WSW 20 24 1009.5 - - - - - - - - -
28/08:00pm 13.4 WSW 17 21 1009.4 - - - - - - - - -
28/07:50pm 13.6 WSW 22 28 1009.2 - - - - - - - - -
28/07:40pm 13.7 SW 20 25 1009.1 - - - - - - - - -
28/07:30pm 13.7 SW 19 22 1008.7 - - - - - - - - -
28/07:20pm 13.6 SW 20 24 1008.9 - - - - - - - - -
28/07:10pm 13.8 SW 20 24 1009.0 - - - - - - - - -
28/07:00pm 13.8 WSW 20 27 1008.9 - - - - - - - - -
28/06:50pm 13.9 SW 21 28 1008.5 - - - - - - - - -
28/06:40pm 13.8 SW 20 24 1008.5 - - - - - - - - -
28/06:30pm 13.9 SW 19 22 1008.7 - - - - - - - - -
28/06:20pm 13.9 SW 18 22 1008.7 - - - - - - - - -
28/06:10pm 14.0 SW 19 23 1008.3 - - - - - - - - -
28/06:00pm 14.1 SW 19 23 1008.5 - - - - - - - - -
28/05:50pm 14.0 SW 19 24 1008.8 - - - - - - - - -
28/05:40pm 14.0 SW 20 23 1008.1 - - - - - - - - -
28/05:30pm 14.0 SW 20 22 1007.9 - - - - - - - - -
28/05:20pm 14.1 SW 19 22 1007.7 - - - - - - - - -
28/05:10pm 14.0 SW 18 22 1007.8 - - - - - - - - -
28/05:00pm 13.9 SW 20 23 1007.3 - - - - - - - - -
28/04:50pm 13.8 SW 17 22 1007.4 - - - - - - - - -
28/04:40pm 13.7 SW 18 22 1007.4 - - - - - - - - -
28/04:30pm 13.8 SW 19 22 1007.2 - - - - - - - - -
28/04:20pm 13.9 SW 19 22 1007.4 - - - - - - - - -
28/04:10pm 13.9 SW 17 21 1007.5 - - - - - - - - -
28/04:00pm 13.8 SW 18 21 1007.3 - - - - - - - - -
28/03:50pm 13.8 SW 20 23 1007.2 - - - - - - - - -
28/03:40pm 14.0 SW 19 23 1006.8 - - - - - - - - -
28/03:30pm 14.1 SW 21 24 1006.8 - - - - - - - - -
28/03:20pm 14.1 SW 21 24 1006.9 - - - - - - - - -
28/03:10pm 14.0 SW 21 25 1006.6 - - - - - - - - -
28/03:00pm 14.0 SW 22 27 1006.4 - - - - - - - - -
28/02:50pm 14.1 SW 22 25 1006.4 - - - - - - - - -
28/02:40pm 14.1 SW 22 27 1006.3 - - - - - - - - -
28/02:30pm 14.2 SW 20 25 1006.3 - - - - - - - - -
28/02:20pm 14.0 SW 20 23 1006.4 - - - - - - - - -
28/02:10pm 14.0 SW 20 23 1006.2 - - - - - - - - -
28/02:00pm 14.2 SW 17 21 1006.2 - - - - - - - - -
28/01:50pm 14.3 SW 18 22 1006.0 - - - - - - - - -
28/01:40pm 14.6 SW 18 21 1006.1 - - - - - - - - -
28/01:30pm 14.4 SW 16 21 1006.1 - - - - - - - - -
28/01:20pm 14.0 SW 13 17 1006.2 - - - - - - - - -
28/01:10pm 13.6 SW 10 16 1006.0 - - - - - - - - -
28/01:00pm 13.1 SSW 6 13 1006.4 - - - - - - - - -
28/12:50pm 13.1 SSW 8 13 1006.2 - - - - - - - - -
28/12:40pm 14.0 SSW 12 15 1006.3 - - - - - - - - -
28/12:30pm 14.7 SW 12 14 1005.7 - - - - - - - - -
28/12:20pm 14.3 SW 12 15 1005.8 - - - - - - - - -
28/12:00pm 13.9 SSW 12 16 1005.8 - - - - - - - - -
28/11:50am 13.5 SSW 11 14 1005.9 - - - - - - - - -
28/11:40am 13.3 SSW 11 14 1005.9 - - - - - - - - -
28/11:30am 13.0 S 13 15 1006.1 - - - - - - - - -
28/11:20am 13.0 SSW 13 17 1006.0 - - - - - - - - -
28/11:10am 12.8 SSW 10 14 1006.0 - - - - - - - - -
28/11:00am 12.6 S 12 18 1006.1 - - - - - - - - -
28/10:50am 14.0 SSW 10 19 1006.0 - - - - - - - - -
28/10:40am 14.2 SW 10 12 1006.1 - - - - - - - - -
28/10:30am 13.9 SSW 10 13 1005.8 - - - - - - - - -
28/10:20am 13.6 SSW 11 14 1006.2 - - - - - - - - -
28/10:10am 13.6 SSW 12 14 1006.3 - - - - - - - - -
28/10:00am 13.3 SSW 12 14 1006.3 - - - - - - - - -
28/09:50am 13.1 SSW 12 15 1006.5 - - - - - - - - -
28/09:40am 12.9 S 12 16 1006.5 - - - - - - - - -
28/09:30am 12.8 S 12 16 1006.4 - - - - - - - - -
28/09:20am 12.7 S 13 16 1006.5 - - - - - - - - -
28/09:10am 12.7 S 13 16 1006.4 - - - - - - - - -
28/09:00am 12.7 S 14 17 1006.3 - - - - - - - - -
28/08:50am 12.8 S 14 16 1006.3 - - - - - - - - -
28/08:40am 12.8 S 13 16 1006.2 - - - - - - - - -
28/08:30am 12.8 S 13 18 1006.3 - - - - - - - - -
28/08:20am 12.9 S 13 17 1006.0 - - - - - - - - -
28/08:10am 12.9 S 14 17 1006.2 - - - - - - - - -
28/08:00am 12.9 S 14 17 1006.2 - - - - - - - - -
28/07:50am 13.0 S 14 17 1006.0 - - - - - - - - -
28/07:40am 13.1 S 14 18 1006.0 - - - - - - - - -
28/07:30am 13.3 S 14 18 1005.9 - - - - - - - - -
28/07:20am 13.2 SSW 14 16 1006.1 - - - - - - - - -
28/07:10am 13.2 SSW 15 18 1005.9 - - - - - - - - -
28/07:00am 13.2 SSW 14 17 1005.8 - - - - - - - - -
28/06:50am 13.2 SSW 13 16 1005.6 - - - - - - - - -
28/06:40am 13.1 SSW 13 17 1005.7 - - - - - - - - -
28/06:30am 13.0 SSW 14 17 1005.6 - - - - - - - - -
28/06:20am 13.1 SSW 13 16 1005.4 - - - - - - - - -
28/06:10am 12.8 SSW 13 16 1005.3 - - - - - - - - -
28/06:00am 12.8 SSW 15 18 1005.4 - - - - - - - - -
28/05:50am 12.8 SSW 15 18 1005.3 - - - - - - - - -
28/05:40am 12.9 S 16 18 1005.4 - - - - - - - - -
28/05:30am 13.1 SSW 15 18 1005.1 - - - - - - - - -
28/05:20am 13.1 SSW 16 19 1005.0 - - - - - - - - -
28/05:10am 13.1 SSW 15 19 1004.8 - - - - - - - - -
28/05:00am 13.1 SW 14 20 1004.5 - - - - - - - - -
28/04:50am 13.1 SW 17 20 1003.9 - - - - - - - - -
28/04:40am 13.1 SW 16 19 1004.5 - - - - - - - - -
28/04:30am 13.1 SW 14 17 1004.6 - - - - - - - - -
28/04:20am 13.1 WSW 14 17 1004.6 - - - - - - - - -
28/04:10am 13.2 SW 15 17 1004.7 - - - - - - - - -
28/04:00am 13.2 SW 13 17 1005.0 - - - - - - - - -
28/03:50am 13.5 SSW 11 15 1005.2 - - - - - - - - -
28/03:40am 13.8 SW 12 16 1004.9 - - - - - - - - -
28/03:30am 13.9 SW 11 15 1004.7 - - - - - - - - -
28/03:20am 13.8 SW 13 15 1004.8 - - - - - - - - -
28/03:10am 13.7 SW 13 14 1004.7 - - - - - - - - -
28/03:00am 13.8 SW 11 14 1004.8 - - - - - - - - -
28/02:50am 13.7 SW 11 15 1005.2 - - - - - - - - -
28/02:40am 13.5 SW 12 15 1005.2 - - - - - - - - -
28/02:30am 13.7 SW 11 23 1005.1 - - - - - - - - -
28/02:20am 13.8 SW 12 17 1004.9 - - - - - - - - -
28/02:10am 13.9 SW 12 15 1005.0 - - - - - - - - -
28/02:00am 13.6 SW 11 14 1005.3 - - - - - - - - -
28/01:50am 13.5 SW 11 13 1005.2 - - - - - - - - -
28/01:40am 13.6 SSW 13 17 1005.7 - - - - - - - - -
28/01:30am 13.9 SW 13 16 1005.6 - - - - - - - - -
28/01:20am 13.8 SW 13 15 1005.2 - - - - - - - - -
28/01:10am 13.6 SW 12 14 1005.0 - - - - - - - - -
28/01:00am 13.9 SW 13 17 1004.9 - - - - - - - - -
28/12:50am 14.2 SW 15 17 1004.9 - - - - - - - - -
28/12:40am 14.3 SW 12 17 1005.1 - - - - - - - - -
28/12:30am 14.3 SW 11 13 1005.0 - - - - - - - - -
28/12:20am 14.3 SW 11 13 1005.2 - - - - - - - - -
28/12:10am 14.2 SW 11 13 1005.2 - - - - - - - - -
28/12:00am 14.3 SW 11 14 1005.3 - - - - - - - - -
 
Date/Time
EST
Temp

°C
Wind Pressure Rain
since 9am
mm
Weather Cloud Vis
km
Sea
Height
m
Swell
Dir
 
Speed
knots
Gust
knots
hPa Trend Height
m
Period
s
Dir
27/11:50pm 14.2 SW 12 15 1005.1 - - - - - - - - -
27/11:40pm 14.3 SW 11 14 1005.2 - - - - - - - - -
27/11:30pm 14.2 SW 12 15 1005.3 - - - - - - - - -
27/11:20pm 14.0 SSW 12 15 1005.5 - - - - - - - - -
27/11:10pm 14.0 SSW 11 15 1005.4 - - - - - - - - -
27/11:00pm 14.0 SSW 12 15 1005.5 - - - - - - - - -
27/10:50pm 14.0 SSW 12 15 1005.7 - - - - - - - - -
27/10:40pm 14.0 SSW 12 16 1005.8 - - - - - - - - -
27/10:30pm 13.8 SSW 12 16 1005.9 - - - - - - - - -
27/10:20pm 14.0 SSW 12 14 1005.7 - - - - - - - - -
27/10:10pm 14.4 SW 11 14 1005.4 - - - - - - - - -
27/10:00pm 14.5 SW 13 16 1005.1 - - - - - - - - -
27/09:50pm 15.5 SW 12 16 1005.0 - - - - - - - - -
27/09:40pm 15.1 SW 12 14 1005.1 - - - - - - - - -
27/09:30pm 14.3 SW 13 15 1005.0 - - - - - - - - -
27/09:20pm 14.5 SW 12 14 1005.1 - - - - - - - - -
27/09:10pm 14.6 SW 11 13 1005.3 - - - - - - - - -
27/09:00pm 14.5 SW 12 14 1005.2 - - - - - - - - -

Other Formats:

Comma delimited format used in spreadsheet applications
http://www.bom.gov.au/fwo/IDV60701/IDV60701.55039.axf

JavaScript Object Notation format (JSON) in row-major order
http://www.bom.gov.au/fwo/IDV60701/IDV60701.55039.json